createdAt,value
2023-02-22T01:47:10.171Z,37.92
2023-02-22T01:50:10.245Z,37.13
2023-02-22T01:51:10.198Z,36.35
2023-02-22T01:52:10.222Z,33.72
2023-02-22T01:53:10.268Z,33.05
2023-02-22T01:54:10.320Z,31.18
2023-02-22T01:55:10.351Z,32.01
2023-02-22T01:56:10.406Z,30.82
2023-02-22T01:57:10.456Z,34.77
2023-02-22T01:58:10.505Z,32.06
2023-02-22T01:59:10.518Z,25.00
2023-02-22T02:00:10.578Z,28.86
2023-02-22T02:01:10.621Z,25.00
2023-02-22T02:02:10.667Z,28.38
2023-02-22T02:03:10.813Z,28.16
2023-02-22T02:06:10.791Z,30.41
2023-02-22T02:07:10.803Z,27.47
2023-02-22T02:08:10.824Z,28.47
2023-02-22T02:09:10.888Z,29.30
2023-02-22T02:10:10.870Z,30.29
2023-02-22T02:11:10.903Z,28.44
2023-02-22T02:12:10.921Z,30.50
2023-02-22T02:13:10.956Z,25.38
2023-02-22T02:14:10.997Z,27.97
2023-02-22T02:15:11.050Z,32.53
2023-02-22T02:16:11.101Z,28.77
2023-02-22T02:17:11.137Z,30.57
2023-02-22T02:18:11.189Z,29.53
2023-02-22T02:19:11.227Z,31.08
2023-02-22T02:20:11.258Z,28.42
2023-02-22T02:21:11.275Z,28.80
2023-02-22T02:22:11.276Z,30.22
2023-02-22T02:23:11.679Z,27.30
2023-02-22T02:24:11.321Z,28.38
2023-02-22T02:25:11.348Z,27.23
2023-02-22T02:26:11.391Z,26.39
2023-02-22T02:27:11.429Z,29.39
2023-02-22T02:28:11.467Z,28.78
2023-02-22T02:29:11.479Z,26.39
2023-02-22T02:30:11.588Z,31.08
2023-02-22T02:31:11.541Z,27.30
2023-02-22T02:32:11.729Z,28.17
2023-02-22T02:33:11.594Z,26.48
2023-02-22T02:35:11.587Z,26.36
2023-02-22T02:36:11.604Z,28.44
2023-02-22T02:37:11.613Z,28.81
2023-02-22T02:38:11.616Z,31.33
2023-02-22T02:39:11.633Z,27.07
2023-02-22T02:40:11.685Z,30.81
2023-02-22T02:41:11.658Z,29.18
2023-02-22T02:43:11.681Z,31.24
2023-02-22T02:44:11.679Z,31.65
2023-02-22T02:45:11.692Z,30.06
2023-02-22T02:46:11.642Z,28.73
2023-02-22T02:47:11.723Z,26.36
2023-02-22T02:48:11.608Z,26.87
2023-02-22T02:49:11.642Z,27.58
2023-02-22T02:50:11.639Z,28.27
2023-02-22T02:51:11.671Z,27.43
2023-02-22T02:52:11.696Z,26.66
2023-02-22T02:53:11.721Z,29.81
2023-02-22T02:54:11.751Z,27.50
2023-02-22T02:55:11.783Z,29.79
2023-02-22T02:56:11.842Z,28.67
2023-02-22T02:57:11.892Z,26.14
2023-02-22T02:58:11.915Z,25.86
2023-02-22T02:59:11.917Z,28.30
2023-02-22T03:00:11.902Z,28.14
2023-02-22T03:01:11.902Z,28.42
2023-02-22T03:02:11.920Z,27.31
2023-02-22T03:03:11.952Z,26.29
2023-02-22T03:04:11.965Z,29.13
2023-02-22T03:05:11.994Z,30.68
2023-02-22T03:06:12.028Z,30.44
2023-02-22T03:07:12.122Z,27.06
2023-02-22T03:08:12.064Z,26.37
2023-02-22T03:09:12.058Z,29.28
2023-02-22T03:10:12.052Z,26.72
2023-02-22T03:11:12.057Z,29.89
2023-02-22T03:12:12.049Z,31.23
2023-02-22T03:13:12.044Z,29.50
2023-02-22T03:14:12.035Z,25.50
2023-02-22T03:15:12.057Z,27.30
2023-02-22T03:16:12.073Z,28.93
2023-02-22T03:17:12.083Z,26.14
2023-02-22T03:18:12.075Z,29.65
2023-02-22T03:19:12.091Z,29.05
2023-02-22T03:20:12.100Z,29.10
2023-02-22T03:21:12.117Z,26.98
2023-02-22T03:22:12.157Z,31.69
2023-02-22T03:23:12.196Z,29.61
2023-02-22T03:24:12.229Z,29.67
2023-02-22T03:25:12.264Z,30.50
2023-02-22T03:26:12.284Z,31.25
2023-02-22T03:27:12.327Z,30.09
2023-02-22T03:28:12.331Z,29.29
2023-02-22T03:29:12.391Z,31.44
2023-02-22T03:30:12.428Z,29.41
2023-02-22T03:31:12.464Z,30.44
2023-02-22T03:32:12.489Z,28.36
2023-02-22T03:33:12.486Z,30.16
2023-02-22T03:34:12.544Z,25.40
2023-02-22T03:35:12.550Z,25.00
2023-02-22T03:36:12.564Z,25.00
2023-02-22T03:37:12.581Z,31.57
2023-02-22T03:38:12.590Z,30.10
2023-02-22T03:39:12.606Z,30.93
2023-02-22T03:40:12.629Z,31.22
2023-02-22T03:41:12.647Z,33.20
2023-02-22T03:42:12.666Z,31.54
2023-02-22T03:43:12.694Z,32.26
2023-02-22T03:44:12.724Z,33.75
2023-02-22T03:45:12.769Z,35.07
2023-02-22T03:46:12.812Z,35.42
2023-02-22T03:47:12.801Z,34.93
2023-02-22T03:48:12.795Z,33.76
2023-02-22T03:49:12.804Z,35.09
2023-02-22T03:50:12.845Z,36.88
2023-02-22T03:51:13.700Z,37.15
2023-02-22T03:52:12.912Z,37.74
2023-02-22T03:53:12.899Z,39.99
2023-02-22T03:54:12.930Z,39.52
2023-02-22T04:07:13.485Z,37.46
2023-02-22T04:08:13.532Z,36.92
2023-02-22T04:09:13.598Z,33.08
2023-02-22T04:10:13.656Z,38.10
2023-02-22T04:11:13.759Z,36.22
2023-02-22T04:12:13.766Z,32.99
2023-02-22T04:13:13.823Z,33.00
2023-02-22T04:14:13.852Z,34.98
2023-02-22T04:15:13.893Z,36.36
2023-02-22T04:16:13.956Z,36.93
2023-02-22T04:17:13.993Z,32.57
2023-02-22T04:18:14.070Z,36.14
2023-02-22T04:19:14.096Z,36.65
2023-02-22T04:20:14.172Z,35.04
2023-02-22T04:21:14.345Z,33.75
2023-02-22T04:22:14.264Z,34.39
2023-02-22T04:23:14.309Z,35.04
2023-02-22T04:24:14.354Z,36.71
2023-02-22T04:25:14.382Z,36.65
2023-02-22T04:26:14.402Z,35.40
2023-02-22T04:27:14.453Z,32.54
2023-02-22T04:28:14.505Z,35.64
2023-02-22T04:29:14.558Z,34.70
2023-02-22T04:30:14.620Z,34.05
2023-02-22T04:31:14.866Z,35.79
2023-02-22T04:32:14.795Z,29.71
2023-02-22T04:33:14.729Z,34.34
2023-02-22T04:34:14.771Z,29.79
2023-02-22T04:35:14.819Z,36.06
2023-02-22T04:36:14.862Z,33.88
2023-02-22T04:37:14.923Z,33.25
2023-02-22T04:38:14.957Z,34.94
2023-02-22T04:39:15.095Z,32.23
2023-02-22T04:40:15.074Z,32.68
2023-02-22T04:41:15.486Z,32.01
2023-02-22T04:42:15.152Z,31.59
2023-02-22T04:43:15.205Z,29.53
2023-02-22T04:44:15.244Z,30.13
2023-02-22T04:45:15.303Z,32.85
2023-02-22T04:46:15.374Z,33.60
2023-02-22T04:48:15.443Z,28.74
2023-02-22T04:49:15.486Z,30.13
2023-02-22T04:50:15.539Z,31.57
2023-02-22T04:51:15.857Z,33.38
2023-02-22T04:52:15.626Z,30.95
2023-02-22T04:53:15.676Z,30.63
2023-02-22T04:54:15.726Z,31.77
2023-02-22T04:55:15.778Z,31.72
2023-02-22T04:56:15.815Z,29.19
2023-02-22T04:58:15.902Z,28.61
2023-02-22T04:59:15.948Z,30.07
2023-02-22T05:00:16.000Z,30.02
2023-02-22T05:01:16.407Z,27.93
2023-02-22T05:02:16.097Z,27.77
2023-02-22T05:03:16.114Z,27.02
2023-02-22T05:04:16.158Z,27.17
2023-02-22T05:05:16.210Z,25.00
2023-02-22T05:06:16.251Z,29.73
2023-02-22T05:07:16.302Z,29.01
2023-02-22T05:08:16.325Z,27.64
2023-02-22T05:09:16.366Z,26.62
2023-02-22T05:10:16.411Z,31.28
2023-02-22T05:11:16.738Z,28.61
2023-02-22T05:12:16.413Z,28.10
2023-02-22T05:13:16.407Z,28.65
2023-02-22T05:14:16.418Z,27.42
2023-02-22T05:15:16.423Z,29.55
2023-02-22T05:16:16.477Z,31.97
2023-02-22T05:17:16.443Z,32.54
2023-02-22T05:18:16.447Z,32.48
2023-02-22T05:19:16.442Z,34.20
2023-02-22T05:20:18.358Z,31.26
2023-02-22T05:21:16.827Z,35.37
2023-02-22T05:22:16.416Z,33.47
2023-02-22T05:23:16.401Z,32.24
2023-02-22T05:24:16.378Z,31.14
2023-02-22T05:25:16.367Z,33.74
2023-02-22T05:26:16.362Z,30.95
2023-02-22T05:27:16.340Z,31.38
2023-02-22T05:28:16.327Z,30.32
2023-02-22T05:29:16.336Z,32.31
2023-02-22T05:30:16.336Z,29.74
2023-02-22T05:31:16.649Z,30.55
2023-02-22T05:32:16.282Z,28.81
2023-02-22T05:33:16.257Z,30.28
2023-02-22T05:34:16.261Z,32.16
2023-02-22T05:35:16.249Z,31.94
2023-02-22T05:36:16.225Z,31.26
2023-02-22T05:37:16.216Z,31.15
2023-02-22T05:38:16.196Z,31.10
2023-02-22T05:39:16.189Z,32.93
2023-02-22T05:40:16.189Z,30.71
2023-02-22T05:41:16.643Z,31.52
2023-02-22T05:42:16.148Z,29.26
2023-02-22T05:43:16.133Z,28.54
2023-02-22T05:44:16.123Z,29.55
2023-02-22T06:28:15.395Z,37.18
2023-02-22T11:25:26.501Z,25.00
2023-02-22T11:26:26.466Z,25.00
2023-02-22T11:27:26.430Z,25.00
2023-02-22T11:28:26.389Z,25.00
2023-02-22T11:29:26.360Z,25.00
2023-02-22T11:30:26.360Z,26.97
2023-02-22T11:31:26.360Z,28.50
2023-02-22T11:32:26.279Z,32.17
2023-02-22T11:33:26.214Z,32.73
2023-02-22T11:34:26.179Z,36.46
2023-02-22T11:35:26.143Z,39.66
2023-02-22T11:36:26.097Z,43.66
2023-02-22T11:37:26.065Z,45.25
2023-02-22T11:38:26.036Z,48.84
2023-02-22T11:39:26.058Z,51.05
2023-02-22T11:40:25.969Z,52.06
2023-02-22T11:41:25.933Z,53.05
2023-02-22T11:42:25.896Z,55.90
2023-02-22T11:43:25.854Z,59.06
2023-02-22T11:44:25.816Z,59.10
2023-02-22T11:45:25.788Z,57.31
2023-02-22T11:46:25.769Z,56.37
2023-02-22T11:47:25.720Z,51.73
2023-02-22T11:48:25.706Z,44.27
2023-02-22T11:49:25.644Z,41.27
2023-02-22T11:50:25.607Z,39.99
2023-02-22T11:51:25.554Z,35.02
2023-02-22T11:52:27.175Z,33.97
2023-02-22T11:53:25.489Z,28.66
2023-02-22T11:54:25.441Z,27.14
2023-02-22T11:55:41.129Z,27.02
2023-02-22T11:56:37.232Z,27.22
2023-02-22T11:57:26.329Z,27.33
2023-02-22T11:58:25.261Z,27.05
2023-02-22T11:59:25.233Z,19.09
2023-02-22T12:00:25.210Z,9.55
2023-02-22T12:01:25.161Z,10.65
2023-02-22T12:02:25.141Z,25.02
2023-02-22T12:03:27.043Z,25.00
2023-02-22T12:04:25.096Z,25.01
2023-02-22T12:05:25.040Z,19.44
2023-02-22T12:06:25.014Z,11.22
2023-02-22T12:07:25.005Z,0.00
2023-02-22T12:08:24.976Z,0.00
2023-02-22T12:09:24.914Z,26.05
2023-02-22T12:10:24.874Z,25.52
2023-02-22T12:11:24.832Z,25.66
2023-02-22T12:12:24.794Z,29.60
2023-02-22T12:13:24.765Z,24.56
2023-02-22T12:14:24.755Z,31.62
2023-02-22T12:15:24.711Z,26.25
2023-02-22T12:16:24.681Z,26.61
2023-02-22T12:17:24.650Z,26.09
2023-02-22T12:18:24.624Z,25.00
2023-02-22T12:19:24.597Z,27.70
2023-02-22T12:20:24.564Z,25.00
2023-02-22T12:21:24.533Z,25.00
2023-02-22T12:22:24.491Z,25.00
2023-02-22T12:23:24.471Z,25.30
2023-02-22T12:24:24.454Z,25.00
2023-02-22T12:25:24.422Z,25.00
2023-02-22T12:26:24.397Z,25.00
2023-02-22T12:27:24.487Z,26.17
2023-02-22T12:28:25.350Z,25.01
2023-02-22T12:29:24.359Z,25.07
2023-02-22T12:30:24.345Z,26.96
2023-02-22T12:31:24.316Z,26.53
2023-02-22T12:32:24.268Z,28.18
2023-02-22T12:33:24.212Z,23.94
2023-02-22T12:34:24.226Z,27.11
2023-02-22T12:35:24.167Z,27.19
2023-02-22T12:36:24.161Z,30.13
2023-02-22T12:37:24.140Z,29.71
2023-02-22T12:38:24.137Z,25.95
2023-02-22T12:39:24.093Z,27.27
2023-02-22T12:40:24.149Z,24.14
2023-02-22T12:41:24.177Z,24.77
2023-02-22T12:42:24.199Z,25.00
2023-02-22T12:43:24.247Z,26.03
2023-02-22T12:44:24.256Z,27.88
2023-02-22T12:45:24.319Z,27.00
2023-02-22T12:46:24.354Z,27.04
2023-02-22T12:47:24.337Z,25.00
2023-02-22T12:48:24.236Z,26.04
2023-02-22T12:49:24.216Z,35.52
2023-02-22T12:50:24.200Z,63.33
2023-02-22T12:51:24.171Z,120.65
2023-02-22T12:52:24.138Z,146.61
2023-02-22T12:53:24.121Z,130.65
2023-02-22T12:54:24.117Z,117.30
2023-02-22T12:55:24.089Z,97.99
2023-02-22T12:56:24.059Z,90.82
2023-02-22T12:57:24.047Z,79.40
2023-02-22T12:58:24.036Z,75.01
2023-02-22T12:59:24.016Z,62.01
2023-02-22T13:00:24.001Z,57.23
2023-02-22T13:01:24.015Z,53.93
2023-02-22T13:02:23.947Z,50.85
2023-02-22T13:03:23.936Z,48.05
2023-02-22T13:04:23.917Z,44.69
2023-02-22T13:05:23.955Z,43.39
2023-02-22T13:06:23.882Z,38.46
2023-02-22T13:07:23.865Z,39.72
2023-02-22T13:08:23.860Z,37.59
2023-02-22T13:09:23.844Z,35.47
2023-02-22T13:10:23.832Z,34.79
2023-02-22T13:11:23.832Z,30.89
2023-02-22T13:12:23.808Z,31.88
2023-02-22T13:13:23.793Z,34.40
2023-02-22T13:14:23.775Z,32.01
2023-02-22T13:15:23.758Z,27.34
2023-02-22T13:16:23.752Z,27.29
2023-02-22T13:17:23.738Z,28.32
2023-02-22T13:18:23.730Z,27.06
2023-02-22T13:19:23.720Z,30.47
2023-02-22T13:20:23.701Z,25.53
2023-02-22T13:21:23.695Z,25.66
2023-02-22T13:22:25.491Z,24.83
2023-02-22T13:23:23.658Z,30.55
2023-02-22T13:24:23.641Z,26.46
2023-02-22T13:25:23.630Z,27.52
2023-02-22T13:26:23.616Z,27.54
2023-02-22T13:27:23.596Z,27.91
2023-02-22T13:28:23.586Z,29.77
2023-02-22T13:29:23.568Z,26.58
2023-02-22T13:30:23.587Z,28.08
2023-02-22T13:31:23.588Z,27.60
2023-02-22T13:32:23.566Z,30.40
2023-02-22T13:33:23.514Z,28.03
2023-02-22T13:34:23.501Z,26.14
2023-02-22T13:35:23.784Z,26.45
2023-02-22T13:36:23.468Z,27.17
2023-02-22T13:37:23.447Z,29.93
2023-02-22T13:38:23.442Z,26.51
2023-02-22T13:39:23.421Z,28.52
2023-02-22T13:40:23.408Z,27.01
2023-02-22T13:41:23.470Z,28.43
2023-02-22T13:42:23.377Z,30.27
2023-02-22T13:43:23.376Z,29.94
2023-02-22T13:44:23.354Z,26.38
2023-02-22T13:45:23.350Z,28.12
2023-02-22T13:46:23.397Z,26.33
2023-02-22T13:47:23.329Z,25.14
2023-02-22T13:48:23.315Z,28.07
2023-02-22T13:49:25.599Z,25.69
2023-02-22T13:50:23.306Z,28.16
2023-02-22T13:51:23.282Z,28.59
2023-02-22T13:52:23.277Z,26.70
2023-02-22T13:53:23.259Z,29.13
2023-02-22T13:54:23.325Z,25.17
2023-02-22T13:55:23.240Z,29.71
2023-02-22T13:56:23.251Z,27.49
2023-02-22T13:57:23.219Z,28.28
2023-02-22T13:58:23.203Z,26.62
2023-02-22T13:59:23.191Z,27.37
2023-02-22T14:00:23.234Z,26.81
2023-02-22T14:01:23.188Z,28.74
2023-02-22T14:02:23.174Z,27.42
2023-02-22T14:03:23.166Z,28.02
2023-02-22T14:04:23.158Z,27.87
2023-02-22T14:05:23.211Z,27.64
2023-02-22T14:06:23.157Z,29.74
2023-02-22T14:07:23.137Z,27.18
2023-02-22T14:08:23.147Z,27.66
2023-02-22T14:09:23.123Z,32.26
2023-02-22T14:10:23.119Z,27.56
2023-02-22T14:11:23.121Z,28.70
2023-02-22T14:12:23.111Z,25.57
2023-02-22T14:13:23.115Z,29.38
2023-02-22T14:14:23.141Z,27.14
2023-02-22T15:45:23.103Z,29.94
2023-02-22T15:46:23.127Z,30.54
2023-02-22T15:47:23.135Z,31.38
2023-02-22T15:48:23.154Z,29.57
2023-02-22T15:49:23.186Z,29.94
2023-02-22T15:50:23.204Z,30.63
2023-02-22T15:51:23.212Z,28.39
2023-02-22T15:52:23.230Z,28.75
2023-02-22T15:53:23.255Z,29.42
2023-02-22T15:54:27.398Z,27.58
2023-02-22T15:55:25.390Z,27.76
2023-02-22T15:56:23.277Z,28.25
2023-02-22T15:57:23.260Z,27.98
2023-02-22T15:58:23.269Z,29.33
2023-02-22T15:59:23.271Z,30.04
2023-02-22T16:00:23.300Z,25.39
2023-02-22T16:01:23.355Z,32.10
2023-02-22T16:02:23.366Z,27.53
2023-02-22T16:03:23.367Z,26.75
2023-02-22T16:04:23.396Z,29.44
2023-02-22T16:05:23.424Z,29.03
2023-02-22T16:06:23.437Z,28.57
2023-02-22T16:07:23.450Z,26.80
2023-02-22T16:08:23.486Z,29.68
2023-02-22T16:09:23.494Z,29.39
2023-02-22T16:10:23.553Z,29.32
2023-02-22T16:11:23.553Z,30.43
2023-02-22T16:12:23.592Z,27.76
2023-02-22T16:13:31.432Z,27.84
2023-02-22T16:14:24.563Z,28.01
2023-02-22T16:15:23.533Z,28.47
2023-02-22T16:16:23.633Z,28.27
2023-02-22T16:17:23.505Z,28.89
2023-02-22T16:18:23.482Z,28.91
2023-02-22T16:19:24.328Z,30.02
2023-02-22T16:20:24.334Z,25.69
2023-02-22T16:21:23.426Z,29.39
2023-02-22T16:22:23.396Z,28.48
2023-02-22T16:23:23.384Z,30.50
2023-02-22T16:24:23.361Z,29.60
2023-02-22T16:25:23.332Z,29.18
2023-02-22T16:26:23.293Z,29.50
2023-02-22T16:28:23.274Z,30.11
2023-02-22T16:29:23.391Z,26.11
2023-02-22T16:30:24.715Z,29.91
2023-02-22T16:31:23.486Z,28.62
2023-02-22T16:32:23.363Z,29.07
2023-02-22T16:33:23.374Z,31.40
2023-02-22T16:34:23.399Z,29.66
2023-02-22T16:35:23.424Z,28.10
2023-02-22T16:36:23.453Z,27.91
2023-02-22T16:37:23.480Z,30.18
2023-02-22T16:38:23.514Z,28.03
2023-02-22T16:39:23.542Z,27.92
2023-02-22T16:40:23.554Z,27.66
2023-02-22T16:41:23.579Z,28.32
2023-02-22T16:42:23.635Z,27.96
2023-02-22T16:43:23.626Z,26.99
2023-02-22T16:44:23.657Z,28.53
2023-02-22T16:45:23.681Z,27.74
2023-02-22T16:46:23.748Z,28.74
2023-02-22T16:47:23.726Z,30.87
2023-02-22T16:48:23.767Z,26.77
2023-02-22T16:49:23.775Z,27.23
2023-02-22T16:50:23.827Z,27.71
2023-02-22T16:51:23.834Z,26.44
2023-02-22T16:52:23.860Z,26.90
2023-02-22T16:53:23.887Z,28.44
2023-02-22T16:54:23.930Z,28.24
2023-02-22T16:55:23.934Z,31.23
2023-02-22T16:56:23.965Z,28.87
2023-02-22T16:57:23.990Z,27.23
2023-02-22T16:58:24.022Z,30.64
2023-02-22T16:59:24.035Z,25.70
2023-02-22T17:00:24.084Z,29.78
2023-02-22T17:01:24.228Z,26.23
2023-02-22T17:02:24.120Z,28.82
2023-02-22T17:03:24.153Z,26.69
2023-02-22T17:04:24.182Z,26.30
2023-02-22T17:05:24.265Z,27.97
2023-02-22T17:06:24.236Z,25.29
2023-02-22T17:07:24.296Z,25.12
2023-02-22T17:08:24.328Z,27.41
2023-02-22T17:09:24.325Z,31.50
2023-02-22T17:10:24.360Z,27.00
2023-02-22T17:11:24.379Z,26.21
2023-02-22T17:12:24.412Z,28.69
2023-02-22T17:13:26.791Z,29.82
2023-02-22T17:14:24.455Z,29.23
2023-02-22T17:15:24.404Z,30.60
2023-02-22T17:16:24.507Z,28.37
2023-02-22T17:17:24.513Z,28.58
2023-02-22T17:18:24.422Z,28.56
2023-02-22T17:19:24.380Z,31.10
2023-02-22T17:20:24.332Z,29.53
2023-02-22T17:21:24.308Z,26.92
2023-02-22T17:22:24.305Z,29.14
2023-02-22T17:23:24.351Z,28.02
2023-02-22T17:24:24.302Z,26.65
2023-02-22T17:25:24.281Z,25.94
2023-02-22T17:26:24.234Z,30.23
2023-02-22T17:27:24.242Z,25.29
2023-02-22T17:28:24.204Z,28.81
2023-02-22T17:29:24.192Z,30.00
2023-02-22T17:30:24.246Z,28.71
2023-02-22T17:31:24.250Z,28.06
2023-02-22T17:32:24.172Z,26.66
2023-02-22T17:33:24.114Z,26.25
2023-02-22T17:34:24.115Z,28.97
2023-02-22T17:35:24.090Z,29.55
2023-02-22T17:36:24.086Z,28.08
2023-02-22T17:37:24.071Z,26.80
2023-02-22T17:38:24.084Z,29.30
2023-02-22T17:39:24.067Z,31.42
2023-02-22T17:40:24.061Z,29.51
2023-02-22T17:41:24.023Z,29.72
2023-02-22T17:42:24.004Z,27.29
2023-02-22T17:43:23.985Z,31.67
2023-02-22T17:44:23.976Z,27.13
2023-02-22T17:45:23.964Z,28.93
2023-02-22T17:46:23.984Z,27.20
2023-02-22T17:47:23.930Z,28.44
2023-02-22T17:48:24.499Z,30.84
2023-02-22T17:49:23.893Z,29.85
2023-02-22T17:50:23.889Z,28.16
2023-02-22T17:51:23.879Z,29.90
2023-02-22T17:52:23.868Z,28.21
2023-02-22T17:53:23.847Z,29.26
2023-02-22T17:54:23.835Z,30.10
2023-02-22T17:55:23.820Z,29.99
2023-02-22T17:56:23.818Z,33.09
2023-02-22T17:57:23.861Z,29.61
2023-02-22T17:58:23.836Z,30.46
2023-02-22T17:59:23.729Z,27.83
2023-02-22T18:00:23.726Z,29.10
2023-02-22T18:01:23.901Z,29.26
2023-02-22T18:02:23.751Z,27.71
2023-02-22T18:03:23.661Z,27.97
2023-02-22T18:04:23.640Z,27.96
2023-02-22T18:05:23.673Z,32.18
2023-02-22T18:06:25.344Z,29.92
2023-02-22T18:07:23.745Z,31.41
2023-02-22T18:08:23.782Z,28.99
2023-02-22T18:09:23.840Z,30.93
2023-02-22T18:10:23.858Z,33.99
2023-02-22T18:11:23.893Z,29.69
2023-02-22T18:12:23.925Z,32.92
2023-02-22T18:13:23.961Z,30.50
2023-02-22T18:14:24.002Z,32.64
2023-02-22T18:15:24.047Z,33.03
2023-02-22T18:16:24.106Z,27.97
2023-02-22T18:17:24.106Z,28.65
2023-02-22T18:18:24.199Z,31.77
2023-02-22T18:19:24.196Z,26.40
2023-02-22T18:20:24.225Z,30.34
2023-02-22T18:21:24.291Z,28.14
2023-02-22T18:22:24.315Z,32.68
2023-02-22T18:23:24.345Z,28.46
2023-02-22T18:24:24.393Z,32.09
2023-02-22T18:25:24.427Z,29.80
2023-02-22T18:26:24.967Z,29.45
2023-02-22T18:27:24.509Z,29.54
2023-02-22T18:28:24.549Z,29.17
2023-02-22T18:29:24.599Z,27.92
2023-02-22T18:30:24.650Z,30.81
2023-02-22T18:31:24.725Z,29.74
2023-02-22T18:32:24.781Z,28.18
2023-02-22T18:33:24.761Z,28.44
2023-02-22T18:34:24.797Z,31.71
2023-02-22T18:35:24.854Z,29.12
2023-02-22T18:36:24.894Z,29.99
2023-02-22T18:37:24.917Z,25.70
2023-02-22T18:38:24.978Z,25.64
2023-02-22T18:39:25.000Z,28.13
2023-02-22T18:40:25.057Z,25.81
2023-02-22T18:41:25.301Z,29.15
2023-02-22T18:42:25.133Z,28.67
2023-02-22T18:43:25.189Z,28.69
2023-02-22T18:44:25.204Z,29.69
2023-02-22T18:45:27.842Z,27.13
2023-02-22T18:46:25.608Z,27.97
2023-02-22T18:47:25.559Z,27.53
2023-02-22T18:48:25.595Z,29.06
2023-02-22T18:49:25.643Z,31.38
2023-02-22T18:50:25.678Z,28.53
2023-02-22T18:51:25.722Z,31.81
2023-02-22T18:52:25.766Z,30.49
2023-02-22T18:53:25.819Z,27.65
2023-02-22T18:54:25.848Z,31.26
2023-02-22T18:55:25.892Z,27.49
2023-02-22T18:56:25.941Z,29.68
2023-02-22T18:57:25.978Z,27.05
2023-02-22T18:58:26.015Z,25.00
2023-02-22T18:59:26.129Z,29.59
2023-02-22T19:00:26.101Z,25.75
2023-02-22T19:01:26.160Z,27.60
2023-02-22T19:02:26.223Z,26.39
2023-02-22T19:03:26.222Z,31.01
2023-02-22T19:04:26.257Z,29.60
2023-02-22T19:05:26.311Z,31.25
2023-02-22T21:47:33.101Z,31.38
2023-02-22T21:48:33.146Z,29.61
2023-02-22T21:49:33.271Z,32.11
2023-02-22T21:50:33.233Z,32.14
2023-02-22T21:51:33.314Z,31.70
2023-02-22T21:52:33.322Z,29.73
2023-02-22T21:53:33.377Z,29.54
2023-02-22T21:54:33.428Z,31.01
2023-02-22T21:55:33.470Z,28.37
2023-02-22T21:56:33.516Z,30.11
2023-02-22T21:57:33.566Z,30.61
2023-02-22T21:58:33.608Z,28.21
2023-02-22T21:59:33.664Z,27.82
2023-02-22T22:00:33.716Z,27.89
2023-02-22T22:01:33.815Z,30.03
2023-02-22T22:02:33.833Z,29.82
2023-02-22T22:03:33.845Z,37.26
2023-02-22T22:04:33.905Z,25.96
2023-02-22T22:06:34.002Z,29.58
2023-02-22T22:07:34.062Z,30.85
2023-02-22T22:08:34.088Z,28.37
2023-02-22T22:09:34.134Z,28.96
2023-02-22T22:10:34.183Z,28.04
2023-02-22T23:02:36.795Z,30.58
2023-02-22T23:03:36.943Z,26.61
2023-02-22T23:04:36.870Z,29.53
2023-02-22T23:05:36.922Z,30.23
2023-02-22T23:06:36.952Z,25.00
2023-02-22T23:08:37.044Z,29.09
2023-02-22T23:09:37.097Z,30.57
2023-02-22T23:10:37.146Z,26.91
2023-02-22T23:11:37.197Z,28.80
2023-02-22T23:12:37.251Z,26.90
2023-02-22T23:13:37.303Z,25.61
2023-02-22T23:14:37.358Z,29.19
2023-02-22T23:15:37.404Z,29.82
2023-02-22T23:16:37.466Z,29.69
2023-02-22T23:17:37.513Z,30.21
2023-02-22T23:18:37.571Z,26.45
2023-02-22T23:19:37.620Z,26.91
2023-02-22T23:20:37.683Z,27.21
2023-02-22T23:21:37.736Z,24.48
2023-02-22T23:22:37.779Z,28.47
2023-02-22T23:23:37.834Z,30.72
2023-02-22T23:24:37.892Z,30.34
2023-02-22T23:25:37.939Z,29.76
2023-02-22T23:26:37.984Z,31.06
2023-02-22T23:27:38.037Z,31.71
2023-02-22T23:28:38.086Z,28.23
2023-02-22T23:29:38.168Z,29.91
2023-02-22T23:30:38.293Z,28.67
2023-02-22T23:31:38.315Z,29.36
2023-02-22T23:32:38.304Z,29.39
2023-02-22T23:33:38.345Z,28.94
2023-02-22T23:34:38.404Z,28.90
2023-02-22T23:35:38.465Z,27.60
2023-02-22T23:36:38.510Z,27.14
2023-02-22T23:37:38.570Z,28.39
2023-02-22T23:38:38.616Z,28.54
2023-02-22T23:39:38.669Z,28.42
2023-02-22T23:40:38.731Z,29.11
2023-02-22T23:41:38.870Z,27.09
2023-02-22T23:42:38.822Z,29.30
2023-02-22T23:43:38.888Z,30.22
2023-02-22T23:44:38.929Z,27.42
2023-02-22T23:45:38.979Z,27.66
2023-02-22T23:46:39.085Z,28.08
2023-02-22T23:47:39.095Z,26.93
2023-02-22T23:48:39.148Z,28.95
2023-02-22T23:49:39.200Z,30.20
2023-02-22T23:50:39.247Z,27.28
2023-02-22T23:51:39.607Z,28.02
